createdAt,value
2017-07-09T00:02:21.797Z,16.90
2017-07-09T00:04:49.463Z,16.80
2017-07-09T00:07:17.873Z,16.80
2017-07-09T00:09:45.513Z,16.70
2017-07-09T00:12:13.297Z,16.70
2017-07-09T00:14:40.932Z,16.80
2017-07-09T00:17:08.577Z,16.80
2017-07-09T00:19:36.363Z,16.90
2017-07-09T00:22:04.759Z,17.00
2017-07-09T00:24:32.624Z,16.90
2017-07-09T00:27:00.290Z,17.00
2017-07-09T00:29:27.921Z,17.10
2017-07-09T00:31:55.558Z,17.20
2017-07-09T00:34:23.475Z,17.20
2017-07-09T00:36:51.892Z,17.30
2017-07-09T00:39:19.533Z,17.30
2017-07-09T00:41:47.207Z,17.30
2017-07-09T00:44:14.852Z,17.20
2017-07-09T00:46:42.525Z,17.30
2017-07-09T00:49:10.241Z,17.40
2017-07-09T00:51:39.296Z,17.50
2017-07-09T00:54:06.923Z,17.40
2017-07-09T00:56:34.617Z,17.40
2017-07-09T00:59:02.248Z,17.50
2017-07-09T01:01:29.901Z,17.40
2017-07-09T01:03:57.573Z,17.40
2017-07-09T01:06:25.979Z,17.40
2017-07-09T01:08:53.617Z,17.40
2017-07-09T01:11:21.287Z,17.40
2017-07-09T01:13:48.936Z,17.40
2017-07-09T01:16:16.569Z,17.40
2017-07-09T01:18:44.265Z,17.30
2017-07-09T01:21:11.919Z,17.30
2017-07-09T01:23:39.553Z,17.30
2017-07-09T01:26:07.239Z,17.30
2017-07-09T01:28:34.872Z,17.20
2017-07-09T01:31:03.485Z,17.30
2017-07-09T01:33:31.151Z,17.20
2017-07-09T01:35:58.793Z,17.40
2017-07-09T01:38:26.442Z,17.40
2017-07-09T01:40:54.174Z,17.40
2017-07-09T01:43:21.810Z,17.40
2017-07-09T01:45:49.451Z,17.40
2017-07-09T01:48:17.133Z,17.50
2017-07-09T01:50:44.778Z,17.50
2017-07-09T01:53:12.659Z,17.50
2017-07-09T01:55:41.098Z,17.30
2017-07-09T01:58:08.732Z,17.20
2017-07-09T02:00:36.373Z,17.20
2017-07-09T02:03:04.039Z,17.40
2017-07-09T02:05:31.685Z,17.40
2017-07-09T02:07:59.319Z,17.40
2017-07-09T02:10:26.993Z,17.40
2017-07-09T02:12:54.676Z,17.40
2017-07-09T02:15:22.340Z,17.40
2017-07-09T02:17:50.200Z,17.40
2017-07-09T02:20:17.841Z,17.40
2017-07-09T02:22:45.482Z,17.40
2017-07-09T02:25:13.299Z,17.50
2017-07-09T02:27:41.718Z,17.40
2017-07-09T02:30:09.350Z,17.40
2017-07-09T02:32:37.023Z,17.30
2017-07-09T02:35:04.673Z,17.30
2017-07-09T02:37:32.320Z,17.30
2017-07-09T02:40:00.182Z,17.20
2017-07-09T02:42:27.820Z,17.10
2017-07-09T02:44:55.478Z,17.10
2017-07-09T02:47:23.544Z,17.10
2017-07-09T02:49:51.185Z,17.20
2017-07-09T02:52:18.818Z,17.20
2017-07-09T02:54:46.501Z,17.20
2017-07-09T02:57:14.265Z,17.00
2017-07-09T02:59:41.909Z,16.90
2017-07-09T03:02:09.575Z,16.90
2017-07-09T03:04:37.226Z,16.90
2017-07-09T03:07:04.862Z,16.90
2017-07-09T03:09:32.587Z,16.90
2017-07-09T03:12:00.989Z,16.90
2017-07-09T03:14:28.635Z,16.80
2017-07-09T03:16:56.315Z,16.90
2017-07-09T03:19:24.065Z,16.90
2017-07-09T03:21:51.701Z,17.00
2017-07-09T03:24:19.389Z,17.00
2017-07-09T03:26:47.861Z,17.00
2017-07-09T03:29:15.509Z,17.10
2017-07-09T03:31:43.401Z,17.10
2017-07-09T03:34:11.038Z,17.20
2017-07-09T03:36:38.675Z,17.20
2017-07-09T03:39:07.332Z,17.30
2017-07-09T03:41:34.973Z,17.30
2017-07-09T03:44:02.624Z,17.30
2017-07-09T03:46:30.303Z,17.50
2017-07-09T03:48:57.943Z,17.50
2017-07-09T03:51:25.583Z,17.50
2017-07-09T03:53:53.410Z,17.50
2017-07-09T03:56:21.073Z,17.40
2017-07-09T03:58:48.707Z,17.50
2017-07-09T04:01:16.379Z,17.50
2017-07-09T04:03:44.081Z,17.50
2017-07-09T04:06:11.728Z,17.50
2017-07-09T04:08:40.165Z,17.70
2017-07-09T04:11:07.808Z,17.60
2017-07-09T04:13:35.442Z,17.70
2017-07-09T04:16:03.335Z,17.80
2017-07-09T04:18:31.740Z,18.00
2017-07-09T04:20:59.376Z,17.90
2017-07-09T04:23:27.065Z,18.00
2017-07-09T04:25:54.713Z,17.90
2017-07-09T04:28:22.586Z,17.90
2017-07-09T04:30:51.037Z,17.80
2017-07-09T04:33:18.691Z,17.70
2017-07-09T04:35:46.337Z,17.90
2017-07-09T04:38:14.781Z,18.10
2017-07-09T04:40:42.495Z,18.00
2017-07-09T04:43:10.135Z,18.20
2017-07-09T04:45:37.815Z,18.20
2017-07-09T04:48:05.533Z,18.20
2017-07-09T04:50:33.375Z,18.30
2017-07-09T04:53:01.050Z,18.40
2017-07-09T04:55:28.697Z,18.40
2017-07-09T04:57:56.337Z,18.40
2017-07-09T05:00:24.127Z,18.40
2017-07-09T05:02:51.759Z,18.60
2017-07-09T05:05:19.433Z,18.60
2017-07-09T05:07:47.117Z,18.70
2017-07-09T05:10:14.765Z,18.70
2017-07-09T05:12:42.676Z,18.60
2017-07-09T05:15:10.355Z,18.60
2017-07-09T05:17:37.991Z,18.50
2017-07-09T05:20:05.624Z,18.40
2017-07-09T05:22:34.103Z,18.60
2017-07-09T05:25:01.756Z,18.50
2017-07-09T05:27:29.401Z,18.60
2017-07-09T05:29:57.126Z,18.60
2017-07-09T05:32:25.523Z,18.70
2017-07-09T05:34:53.339Z,18.70
2017-07-09T05:37:21.003Z,18.70
2017-07-09T05:39:49.410Z,18.80
2017-07-09T05:42:17.061Z,18.70
2017-07-09T05:44:44.737Z,18.80
2017-07-09T05:47:12.500Z,18.70
2017-07-09T05:49:40.895Z,18.80
2017-07-09T05:52:08.582Z,18.80
2017-07-09T05:54:36.227Z,18.90
2017-07-09T05:57:03.913Z,19.00
2017-07-09T05:59:31.563Z,19.00
2017-07-09T06:01:59.214Z,19.10
2017-07-09T06:04:26.837Z,19.20
2017-07-09T06:06:54.494Z,19.10
2017-07-09T06:09:22.099Z,19.20
2017-07-09T06:11:50.485Z,19.20
2017-07-09T06:14:18.159Z,19.20
2017-07-09T06:16:45.799Z,19.30
2017-07-09T06:19:13.487Z,19.20
2017-07-09T06:21:41.918Z,19.30
2017-07-09T06:24:09.553Z,19.30
2017-07-09T06:26:37.173Z,19.40
2017-07-09T06:29:04.852Z,19.50
2017-07-09T06:31:32.533Z,19.60
2017-07-09T06:34:00.935Z,19.60
2017-07-09T06:36:28.603Z,19.50
2017-07-09T06:38:56.679Z,19.50
2017-07-09T06:41:24.444Z,19.50
2017-07-09T06:43:52.096Z,19.60
2017-07-09T06:46:19.737Z,19.60
2017-07-09T06:48:47.340Z,19.70
2017-07-09T06:51:14.979Z,19.90
2017-07-09T06:53:42.602Z,20.00
2017-07-09T06:56:11.044Z,20.80
2017-07-09T06:58:38.679Z,20.70
2017-07-09T07:01:06.283Z,21.10
2017-07-09T07:03:33.896Z,21.60
2017-07-09T07:06:01.555Z,21.70
2017-07-09T07:08:29.934Z,21.60
2017-07-09T07:10:57.548Z,21.50
2017-07-09T07:13:25.187Z,21.20
2017-07-09T07:15:52.827Z,20.90
2017-07-09T07:18:20.473Z,20.90
2017-07-09T07:20:48.120Z,20.90
2017-07-09T07:23:15.727Z,20.90
2017-07-09T07:25:43.390Z,20.80
2017-07-09T07:28:11.054Z,20.70
2017-07-09T07:30:38.688Z,20.80
2017-07-09T07:33:06.293Z,21.00
2017-07-09T07:35:34.706Z,21.20
2017-07-09T07:38:02.340Z,21.20
2017-07-09T07:40:30.065Z,21.40
2017-07-09T07:42:57.714Z,21.50
2017-07-09T07:45:25.319Z,21.70
2017-07-09T07:47:53.007Z,21.90
2017-07-09T07:50:20.655Z,21.70
2017-07-09T07:52:48.265Z,22.10
2017-07-09T07:55:16.632Z,24.20
2017-07-09T07:57:44.421Z,24.10
2017-07-09T08:00:12.022Z,25.40
2017-07-09T08:02:39.646Z,26.50
2017-07-09T08:05:07.275Z,27.10
2017-07-09T08:07:34.933Z,28.10
2017-07-09T08:10:02.549Z,28.20
2017-07-09T08:12:30.187Z,29.20
2017-07-09T08:14:57.784Z,28.90
2017-07-09T08:17:25.399Z,28.50
2017-07-09T08:19:53.065Z,29.40
2017-07-09T08:22:20.674Z,30.00
2017-07-09T08:24:48.281Z,30.40
2017-07-09T08:27:15.915Z,29.40
2017-07-09T08:29:43.533Z,29.50
2017-07-09T08:32:11.140Z,29.50
2017-07-09T08:34:39.553Z,28.10
2017-07-09T08:37:07.159Z,28.00
2017-07-09T08:39:34.771Z,28.30
2017-07-09T08:42:02.503Z,29.00
2017-07-09T08:44:30.113Z,29.60
2017-07-09T08:46:57.719Z,30.40
2017-07-09T08:49:25.372Z,31.20
2017-07-09T08:51:53.745Z,31.20
2017-07-09T08:54:22.116Z,30.10
2017-07-09T08:56:50.081Z,30.00
2017-07-09T08:59:17.699Z,30.10
2017-07-09T09:01:46.062Z,29.60
2017-07-09T09:04:13.713Z,29.50
2017-07-09T09:06:42.097Z,29.00
2017-07-09T09:09:09.706Z,29.00
2017-07-09T09:11:37.366Z,28.80
2017-07-09T09:14:05.736Z,29.50
2017-07-09T09:16:34.105Z,29.40
2017-07-09T09:19:02.553Z,28.30
2017-07-09T09:21:30.162Z,28.20
2017-07-09T09:23:57.775Z,27.80
2017-07-09T09:26:25.416Z,27.80
2017-07-09T09:28:53.035Z,28.40
2017-07-09T09:31:20.648Z,28.50
2017-07-09T09:33:48.334Z,28.90
2017-07-09T09:36:16.696Z,29.50
2017-07-09T09:38:45.079Z,30.40
2017-07-09T09:41:12.707Z,30.40
2017-07-09T09:43:41.089Z,31.40
2017-07-09T09:46:08.706Z,31.30
2017-07-09T09:48:36.349Z,31.80
2017-07-09T09:51:03.968Z,31.60
2017-07-09T09:53:31.585Z,31.20
2017-07-09T09:55:59.207Z,31.50
2017-07-09T09:58:27.609Z,32.30
2017-07-09T10:00:55.210Z,32.20
2017-07-09T10:03:22.860Z,32.20
2017-07-09T10:05:51.228Z,33.60
2017-07-09T10:08:19.602Z,34.30
2017-07-09T10:10:47.251Z,34.10
2017-07-09T10:13:14.857Z,33.10
2017-07-09T10:15:42.510Z,33.20
2017-07-09T10:18:10.188Z,33.10
2017-07-09T10:20:37.813Z,32.80
2017-07-09T10:23:06.178Z,33.50
2017-07-09T10:25:34.729Z,33.50
2017-07-09T10:28:02.327Z,33.40
2017-07-09T10:30:30.150Z,33.50
2017-07-09T10:32:57.800Z,33.80
2017-07-09T10:35:26.174Z,33.20
2017-07-09T10:37:53.820Z,33.10
2017-07-09T10:40:21.518Z,32.40
2017-07-09T10:42:49.124Z,32.30
2017-07-09T10:45:16.738Z,32.60
2017-07-09T10:47:45.142Z,31.50
2017-07-09T10:50:12.764Z,31.40
2017-07-09T10:52:40.373Z,30.70
2017-07-09T10:55:08.024Z,30.90
2017-07-09T10:57:35.639Z,31.00
2017-07-09T11:00:03.354Z,30.60
2017-07-09T11:02:30.988Z,30.30
2017-07-09T11:04:59.373Z,29.90
2017-07-09T11:07:26.982Z,29.90
2017-07-09T11:09:54.625Z,29.90
2017-07-09T11:12:22.219Z,30.10
2017-07-09T11:14:49.851Z,30.00
2017-07-09T11:17:17.497Z,29.90
2017-07-09T11:19:45.105Z,29.90
2017-07-09T11:22:12.732Z,30.00
2017-07-09T11:24:40.358Z,30.00
2017-07-09T11:27:07.962Z,30.50
2017-07-09T11:29:36.344Z,31.00
2017-07-09T11:32:04.024Z,31.00
2017-07-09T11:34:31.632Z,31.20
2017-07-09T11:36:59.243Z,31.50
2017-07-09T11:39:26.879Z,31.70
2017-07-09T11:41:54.509Z,31.40
2017-07-09T11:44:22.104Z,31.40
2017-07-09T11:46:50.505Z,31.30
2017-07-09T11:49:18.120Z,31.20
2017-07-09T11:51:45.742Z,31.00
2017-07-09T11:54:13.430Z,31.10
2017-07-09T11:56:41.027Z,31.00
2017-07-09T11:59:08.658Z,31.10
2017-07-09T12:01:36.293Z,30.70
2017-07-09T12:04:04.039Z,30.70
2017-07-09T12:06:31.640Z,30.30
2017-07-09T12:09:00.136Z,29.50
2017-07-09T12:11:27.754Z,29.40
2017-07-09T12:13:56.137Z,29.50
2017-07-09T12:16:23.832Z,29.40
2017-07-09T12:18:51.469Z,29.50
2017-07-09T12:21:19.095Z,29.50
2017-07-09T12:23:46.738Z,29.30
2017-07-09T12:26:14.519Z,28.90
2017-07-09T12:28:42.132Z,28.80
2017-07-09T12:31:09.773Z,28.70
2017-07-09T12:33:37.377Z,28.80
2017-07-09T12:36:04.993Z,28.80
2017-07-09T12:38:32.661Z,28.80
2017-07-09T12:41:00.266Z,28.50
2017-07-09T12:43:27.873Z,28.50
2017-07-09T12:45:56.275Z,28.60
2017-07-09T12:48:23.915Z,28.60
2017-07-09T12:50:51.512Z,28.80
2017-07-09T12:53:19.166Z,28.70
2017-07-09T12:55:46.787Z,28.80
2017-07-09T12:58:14.459Z,28.80
2017-07-09T13:00:42.111Z,28.60
2017-07-09T13:03:10.490Z,28.50
2017-07-09T13:05:38.888Z,28.10
2017-07-09T13:08:06.534Z,28.10
2017-07-09T13:10:34.319Z,28.20
2017-07-09T13:13:01.927Z,28.40
2017-07-09T13:15:29.563Z,28.50
2017-07-09T13:17:57.556Z,28.70
2017-07-09T13:20:25.180Z,28.70
2017-07-09T13:22:52.886Z,28.70
2017-07-09T13:25:21.268Z,28.90
2017-07-09T13:27:48.895Z,28.80
2017-07-09T13:30:17.295Z,29.00
2017-07-09T13:32:44.895Z,28.90
2017-07-09T13:35:13.437Z,28.60
2017-07-09T13:37:41.079Z,28.50
2017-07-09T13:40:08.700Z,28.30
2017-07-09T13:42:36.299Z,28.20
2017-07-09T13:45:04.265Z,28.00
2017-07-09T13:47:32.641Z,27.90
2017-07-09T13:50:00.238Z,27.80
2017-07-09T13:52:27.885Z,27.90
2017-07-09T13:54:55.506Z,27.90
2017-07-09T13:57:23.208Z,28.00
2017-07-09T13:59:51.631Z,27.80
2017-07-09T14:02:19.237Z,27.80
2017-07-09T14:04:46.838Z,27.90
2017-07-09T14:07:14.530Z,28.00
2017-07-09T14:09:42.130Z,28.00
2017-07-09T14:12:09.748Z,28.10
2017-07-09T14:14:37.421Z,28.20
2017-07-09T14:17:05.035Z,28.20
2017-07-09T14:19:32.627Z,28.20
2017-07-09T14:22:00.258Z,28.30
2017-07-09T14:24:27.877Z,28.30
2017-07-09T14:26:55.484Z,28.50
2017-07-09T14:29:23.936Z,28.70
2017-07-09T14:31:52.391Z,28.70
2017-07-09T14:34:20.050Z,28.70
2017-07-09T14:36:47.700Z,28.70
2017-07-09T14:39:16.071Z,28.90
2017-07-09T14:41:44.453Z,28.90
2017-07-09T14:44:12.112Z,28.80
2017-07-09T14:46:39.786Z,28.90
2017-07-09T14:49:07.429Z,29.00
2017-07-09T14:51:35.077Z,29.00
2017-07-09T14:54:02.674Z,28.90
2017-07-09T14:56:31.060Z,28.60
2017-07-09T14:58:58.713Z,28.50
2017-07-09T15:01:26.318Z,28.40
2017-07-09T15:03:54.712Z,28.30
2017-07-09T15:06:22.428Z,28.20
2017-07-09T15:08:50.154Z,28.20
2017-07-09T15:11:17.746Z,28.10
2017-07-09T15:13:45.376Z,27.90
2017-07-09T15:16:13.779Z,28.00
2017-07-09T15:18:41.393Z,28.00
2017-07-09T15:21:09.028Z,28.10
2017-07-09T15:23:37.424Z,28.20
2017-07-09T15:26:05.057Z,28.10
2017-07-09T15:28:32.696Z,28.20
2017-07-09T15:31:00.309Z,28.30
2017-07-09T15:33:27.905Z,28.20
2017-07-09T15:35:55.562Z,28.20
2017-07-09T15:38:23.467Z,28.10
2017-07-09T15:40:51.850Z,28.00
2017-07-09T15:43:19.483Z,27.90
2017-07-09T15:45:47.867Z,27.80
2017-07-09T15:48:15.473Z,27.80
2017-07-09T15:50:43.125Z,27.80
2017-07-09T15:53:10.728Z,27.80
2017-07-09T15:55:38.336Z,27.80
2017-07-09T15:58:05.980Z,27.80
2017-07-09T16:00:34.400Z,28.00
2017-07-09T16:03:02.022Z,27.90
2017-07-09T16:05:29.665Z,28.00
2017-07-09T16:07:57.276Z,28.20
2017-07-09T16:10:25.659Z,28.20
2017-07-09T16:12:53.397Z,28.10
2017-07-09T16:15:21.013Z,28.20
2017-07-09T16:17:48.611Z,28.00
2017-07-09T16:20:16.285Z,28.00
2017-07-09T16:22:43.909Z,28.00
2017-07-09T16:25:11.509Z,27.90
2017-07-09T16:27:39.174Z,27.80
2017-07-09T16:30:07.546Z,27.80
2017-07-09T16:32:35.157Z,27.80
2017-07-09T16:35:02.848Z,27.80
2017-07-09T16:37:30.453Z,27.80
2017-07-09T16:39:58.065Z,27.80
2017-07-09T16:42:25.717Z,27.80
2017-07-09T16:44:53.483Z,27.60
2017-07-09T16:47:21.097Z,27.50
2017-07-09T16:49:48.741Z,27.40
2017-07-09T16:52:16.351Z,27.40
2017-07-09T16:54:44.730Z,27.30
2017-07-09T16:57:12.401Z,27.30
2017-07-09T16:59:40.051Z,27.30
2017-07-09T17:02:07.676Z,27.20
2017-07-09T17:04:35.313Z,27.20
2017-07-09T17:07:03.683Z,27.20
2017-07-09T17:09:31.304Z,27.10
2017-07-09T17:11:58.945Z,27.10
2017-07-09T17:14:26.565Z,27.00
2017-07-09T17:16:54.185Z,27.00
2017-07-09T17:19:21.859Z,27.10
2017-07-09T17:21:49.477Z,27.10
2017-07-09T17:24:17.083Z,27.10
2017-07-09T17:26:45.731Z,27.10
2017-07-09T17:29:13.412Z,27.00
2017-07-09T17:31:41.795Z,27.00
2017-07-09T17:34:09.444Z,27.00
2017-07-09T17:36:37.052Z,27.10
2017-07-09T17:39:04.671Z,27.00
2017-07-09T17:41:32.308Z,27.10
2017-07-09T17:44:00.148Z,27.00
2017-07-09T17:46:27.761Z,26.90
2017-07-09T17:48:56.155Z,26.90
2017-07-09T17:51:23.773Z,26.90
2017-07-09T17:53:51.377Z,26.80
2017-07-09T17:56:19.022Z,26.70
2017-07-09T17:58:46.630Z,26.70
2017-07-09T18:01:14.711Z,26.60
2017-07-09T18:03:43.645Z,26.40
2017-07-09T18:06:11.275Z,26.30
2017-07-09T18:08:39.650Z,26.30
2017-07-09T18:11:08.061Z,26.30
2017-07-09T18:13:35.675Z,26.30
2017-07-09T18:16:03.373Z,26.20
2017-07-09T18:18:31.016Z,26.20
2017-07-09T18:20:58.631Z,26.20
2017-07-09T18:23:26.238Z,26.20
2017-07-09T18:25:54.655Z,26.20
2017-07-09T18:28:22.268Z,26.10
2017-07-09T18:30:49.933Z,26.10
2017-07-09T18:33:17.580Z,26.00
2017-07-09T18:35:45.191Z,25.90
2017-07-09T18:38:13.572Z,25.90
2017-07-09T18:40:41.231Z,25.80
2017-07-09T18:43:08.851Z,25.70
2017-07-09T18:45:37.242Z,25.10
2017-07-09T18:48:04.897Z,25.10
2017-07-09T18:50:32.520Z,25.00
2017-07-09T18:53:00.123Z,24.90
2017-07-09T18:55:27.776Z,24.80
2017-07-09T18:57:55.388Z,24.80
2017-07-09T19:00:23.101Z,24.80
2017-07-09T19:02:50.738Z,24.80
2017-07-09T19:05:19.137Z,24.80
2017-07-09T19:07:46.809Z,24.70
2017-07-09T19:10:14.478Z,24.80
2017-07-09T19:12:43.083Z,24.70
2017-07-09T19:15:10.683Z,24.70
2017-07-09T19:17:38.315Z,24.60
2017-07-09T19:20:05.933Z,24.50
2017-07-09T19:22:33.543Z,24.50
2017-07-09T19:25:01.175Z,24.40
2017-07-09T19:27:28.792Z,24.30
2017-07-09T19:29:56.404Z,24.20
2017-07-09T19:32:24.268Z,24.20
2017-07-09T19:34:51.881Z,24.10
2017-07-09T19:37:20.255Z,24.10
2017-07-09T19:39:47.890Z,24.00
2017-07-09T19:42:16.269Z,24.00
2017-07-09T19:44:44.002Z,24.00
2017-07-09T19:47:11.660Z,24.00
2017-07-09T19:49:39.293Z,23.90
2017-07-09T19:52:07.675Z,23.90
2017-07-09T19:54:35.321Z,23.90
2017-07-09T19:57:03.044Z,23.80
2017-07-09T19:59:31.427Z,23.80
2017-07-09T20:01:59.067Z,23.70
2017-07-09T20:04:26.671Z,23.80
2017-07-09T20:06:54.393Z,23.70
2017-07-09T20:09:22.044Z,23.80
2017-07-09T20:11:49.668Z,23.70
2017-07-09T20:14:17.284Z,23.70
2017-07-09T20:16:45.689Z,23.60
2017-07-09T20:19:13.457Z,23.60
2017-07-09T20:21:41.069Z,23.60
2017-07-09T20:24:08.714Z,23.50
2017-07-09T20:26:36.329Z,23.50
2017-07-09T20:29:04.137Z,23.50
2017-07-09T20:31:31.791Z,23.50
2017-07-09T20:33:59.443Z,23.40
2017-07-09T20:36:27.065Z,23.40
2017-07-09T20:38:54.733Z,23.30
2017-07-09T20:41:22.420Z,23.20
2017-07-09T20:43:50.908Z,23.10
2017-07-09T20:46:18.544Z,23.00
2017-07-09T20:48:46.920Z,22.80
2017-07-09T20:51:14.548Z,22.80
2017-07-09T20:53:43.053Z,22.60
2017-07-09T20:56:10.687Z,22.60
2017-07-09T20:58:38.304Z,22.60
2017-07-09T21:01:05.947Z,22.50
2017-07-09T21:03:34.382Z,22.40
2017-07-09T21:06:01.993Z,22.30
2017-07-09T21:08:29.648Z,22.30
2017-07-09T21:10:57.266Z,22.20
2017-07-09T21:13:25.645Z,22.00
2017-07-09T21:15:53.413Z,22.00
2017-07-09T21:18:21.029Z,22.00
2017-07-09T21:20:48.632Z,22.00
2017-07-09T21:23:16.266Z,22.00
2017-07-09T21:25:44.033Z,21.90
2017-07-09T21:28:11.645Z,21.80
2017-07-09T21:30:39.288Z,21.70
2017-07-09T21:33:06.903Z,21.60
2017-07-09T21:35:35.343Z,21.60
2017-07-09T21:38:03.083Z,21.60
2017-07-09T21:40:30.690Z,21.60
2017-07-09T21:42:58.306Z,21.50
2017-07-09T21:45:25.943Z,21.40
2017-07-09T21:47:54.392Z,21.30
2017-07-09T21:50:22.027Z,21.20
2017-07-09T21:52:49.668Z,21.30
2017-07-09T21:55:17.284Z,21.20
2017-07-09T21:57:44.887Z,21.10
2017-07-09T22:00:13.404Z,21.10
2017-07-09T22:02:41.007Z,21.10
2017-07-09T22:05:09.384Z,21.10
2017-07-09T22:07:37.041Z,21.10
2017-07-09T22:10:04.661Z,21.00
2017-07-09T22:12:32.304Z,21.00
2017-07-09T22:15:00.719Z,20.90
2017-07-09T22:17:28.332Z,20.80
2017-07-09T22:19:55.940Z,20.80
2017-07-09T22:22:23.592Z,20.70
2017-07-09T22:24:51.206Z,20.70
2017-07-09T22:27:18.803Z,20.70
2017-07-09T22:29:47.216Z,20.70
2017-07-09T22:32:14.828Z,20.60
2017-07-09T22:34:42.469Z,20.50
2017-07-09T22:37:10.968Z,20.40
2017-07-09T22:39:38.590Z,20.40
2017-07-09T22:42:06.205Z,20.40
2017-07-09T22:44:33.870Z,20.40
2017-07-09T22:47:02.236Z,20.30
2017-07-09T22:49:30.057Z,20.20
2017-07-09T22:51:57.709Z,20.30
2017-07-09T22:54:25.352Z,20.20
2017-07-09T22:56:53.037Z,20.10
2017-07-09T22:59:20.680Z,20.10
2017-07-09T23:01:48.283Z,20.10
2017-07-09T23:04:15.891Z,20.10
2017-07-09T23:06:43.579Z,20.00
2017-07-09T23:09:11.183Z,19.90
2017-07-09T23:11:38.790Z,19.90
2017-07-09T23:14:06.445Z,19.90
2017-07-09T23:16:34.820Z,19.80
2017-07-09T23:19:02.462Z,19.80
2017-07-09T23:21:30.167Z,19.80
2017-07-09T23:23:57.769Z,19.80
2017-07-09T23:26:25.405Z,19.70
2017-07-09T23:28:53.122Z,19.70
2017-07-09T23:31:20.737Z,19.70
2017-07-09T23:33:48.348Z,19.80
2017-07-09T23:36:15.987Z,19.70
2017-07-09T23:38:43.634Z,19.70
2017-07-09T23:41:11.243Z,19.60
2017-07-09T23:43:38.930Z,19.50
2017-07-09T23:46:06.555Z,19.50
2017-07-09T23:48:34.224Z,19.50
2017-07-09T23:51:01.876Z,19.50
2017-07-09T23:53:29.477Z,19.40
2017-07-09T23:55:57.879Z,19.40
2017-07-09T23:58:25.525Z,19.30
